TimeCST,TemperatureF,Dew PointF,Humidity,Sea Level PressureIn,VisibilityMPH,Wind Direction,Wind SpeedMPH,Gust SpeedMPH,PrecipitationIn,Events,Conditions,WindDirDegrees,DateUTC
12:15 AM,20.8,19.2,93,29.99,10.0,ESE,4.6,-,N/A,,Overcast,110,2013-02-04 06:15:00
12:35 AM,20.8,19.2,93,29.97,10.0,ESE,8.1,-,N/A,,Overcast,110,2013-02-04 06:35:00
12:55 AM,21.0,19.0,92,29.96,10.0,ESE,6.9,-,N/A,,Overcast,110,2013-02-04 06:55:00
1:15 AM,21.2,18.7,90,29.95,7.0,ESE,6.9,-,N/A,Snow,Light Snow,110,2013-02-04 07:15:00
1:35 AM,21.2,19.4,93,29.94,3.0,East,8.1,-,N/A,Snow,Light Snow,100,2013-02-04 07:35:00
1:55 AM,21.2,19.4,93,29.92,7.0,ESE,8.1,-,N/A,Snow,Light Snow,110,2013-02-04 07:55:00
2:15 AM,21.4,19.6,93,29.92,4.0,East,8.1,-,N/A,Snow,Light Snow,100,2013-02-04 08:15:00
2:35 AM,21.7,19.4,91,29.90,10.0,ESE,9.2,-,N/A,,Overcast,110,2013-02-04 08:35:00
2:55 AM,21.7,19.2,90,29.89,10.0,ESE,10.4,-,N/A,,Overcast,120,2013-02-04 08:55:00
3:15 AM,21.9,19.4,90,29.89,10.0,ESE,11.5,-,N/A,,Overcast,120,2013-02-04 09:15:00
4:55 AM,23.0,19.4,86,29.86,10.0,East,9.2,-,N/A,,Overcast,100,2013-02-04 10:55:00
5:15 AM,23.0,19.8,87,29.86,10.0,East,8.1,-,N/A,Rain,Freezing Rain,90,2013-02-04 11:15:00
5:35 AM,22.8,20.1,89,29.85,10.0,East,9.2,-,N/A,Rain,Freezing Rain,90,2013-02-04 11:35:00
5:55 AM,22.6,20.3,91,29.84,4.0,ESE,9.2,-,N/A,Snow,Light Snow,110,2013-02-04 11:55:00
6:15 AM,22.8,20.8,92,29.84,2.5,ESE,9.2,-,N/A,Snow,Light Snow,110,2013-02-04 12:15:00
6:35 AM,23.2,21.2,92,29.84,5.0,ESE,9.2,-,N/A,Snow,Light Snow,110,2013-02-04 12:35:00
6:55 AM,23.4,21.2,91,29.84,10.0,East,10.4,-,N/A,,Overcast,90,2013-02-04 12:55:00
7:15 AM,23.2,20.8,91,29.84,10.0,East,11.5,-,N/A,,Overcast,80,2013-02-04 13:15:00
7:35 AM,23.4,21.2,91,29.84,10.0,East,9.2,-,N/A,,Overcast,90,2013-02-04 13:35:00
7:55 AM,23.4,21.0,91,29.84,10.0,East,9.2,-,N/A,,Overcast,80,2013-02-04 13:55:00
8:15 AM,23.4,21.2,91,29.85,10.0,ENE,10.4,-,N/A,,Overcast,60,2013-02-04 14:15:00
8:35 AM,23.7,21.4,91,29.86,10.0,NE,11.5,-,N/A,,Overcast,40,2013-02-04 14:35:00
8:55 AM,23.5,21.0,90,29.85,10.0,ENE,13.8,-,N/A,,Overcast,60,2013-02-04 14:55:00
9:15 AM,23.4,21.0,91,29.86,10.0,ENE,13.8,-,N/A,,Overcast,60,2013-02-04 15:15:00
9:55 AM,22.6,20.1,90,29.86,7.0,NE,15.0,-,N/A,,Overcast,40,2013-02-04 15:55:00
10:15 AM,22.5,19.9,90,29.86,10.0,NE,13.8,-,N/A,,Overcast,40,2013-02-04 16:15:00
10:35 AM,22.5,19.9,90,29.86,10.0,NE,16.1,-,N/A,,Overcast,40,2013-02-04 16:35:00
10:55 AM,23.0,20.3,89,29.88,10.0,NNE,17.3,-,N/A,,Overcast,30,2013-02-04 16:55:00
11:15 AM,22.8,19.9,89,29.88,10.0,NE,16.1,-,N/A,,Overcast,40,2013-02-04 17:15:00
11:35 AM,22.5,19.4,88,29.88,10.0,NNE,13.8,-,N/A,,Overcast,20,2013-02-04 17:35:00
11:55 AM,23.0,19.4,86,29.88,10.0,NNE,13.8,19.6,N/A,,Overcast,20,2013-02-04 17:55:00
12:15 PM,23.2,19.6,86,29.87,10.0,NNE,16.1,-,N/A,,Overcast,30,2013-02-04 18:15:00
12:35 PM,23.5,19.8,85,29.88,10.0,NNE,15.0,19.6,N/A,,Overcast,20,2013-02-04 18:35:00
12:55 PM,23.4,19.4,85,29.89,10.0,NNE,13.8,-,N/A,,Overcast,20,2013-02-04 18:55:00
1:15 PM,23.2,19.0,84,29.89,10.0,North,16.1,-,N/A,,Overcast,360,2013-02-04 19:15:00
1:35 PM,23.2,19.0,84,29.90,10.0,North,18.4,-,N/A,,Overcast,10,2013-02-04 19:35:00
1:55 PM,23.4,18.9,83,29.91,10.0,North,16.1,-,N/A,,Overcast,360,2013-02-04 19:55:00
2:15 PM,23.0,18.5,83,29.91,10.0,North,15.0,-,N/A,,Overcast,360,2013-02-04 20:15:00
2:35 PM,23.0,18.5,83,29.89,10.0,NNE,11.5,-,N/A,,Overcast,20,2013-02-04 20:35:00
2:55 PM,22.8,18.1,82,29.88,10.0,North,10.4,-,N/A,,Overcast,10,2013-02-04 20:55:00
3:15 PM,22.8,18.0,82,29.89,10.0,NNE,13.8,-,N/A,,Overcast,20,2013-02-04 21:15:00
3:35 PM,22.3,17.4,82,29.89,10.0,NNE,15.0,-,N/A,,Overcast,20,2013-02-04 21:35:00
3:55 PM,21.7,16.9,82,29.90,10.0,North,11.5,-,N/A,,Overcast,10,2013-02-04 21:55:00
4:15 PM,21.2,15.8,80,29.91,10.0,North,9.2,-,N/A,,Mostly Cloudy,360,2013-02-04 22:15:00
4:35 PM,19.4,14.9,83,29.91,10.0,North,9.2,-,N/A,,Scattered Clouds,350,2013-02-04 22:35:00
4:55 PM,18.5,14.0,83,29.92,10.0,North,10.4,-,N/A,,Clear,350,2013-02-04 22:55:00
5:15 PM,16.9,13.1,85,29.94,10.0,North,6.9,-,N/A,,Clear,350,2013-02-04 23:15:00
5:35 PM,15.8,12.2,86,29.95,10.0,North,6.9,-,N/A,,Clear,350,2013-02-04 23:35:00
5:55 PM,14.0,11.1,88,29.95,10.0,NNW,4.6,-,N/A,,Clear,340,2013-02-04 23:55:00
6:15 PM,12.2,9.5,89,29.95,10.0,North,5.8,-,N/A,,Clear,360,2013-02-05 00:15:00
6:35 PM,12.2,9.3,88,29.95,10.0,North,5.8,-,N/A,,Clear,360,2013-02-05 00:35:00
7:15 PM,12.6,9.3,87,29.96,10.0,North,4.6,-,N/A,,Clear,350,2013-02-05 01:15:00
7:35 PM,13.1,9.5,86,29.97,10.0,North,5.8,-,N/A,,Clear,350,2013-02-05 01:35:00
7:55 PM,12.2,8.6,85,29.99,10.0,North,5.8,-,N/A,,Clear,350,2013-02-05 01:55:00
8:15 PM,12.7,9.0,85,29.98,10.0,NNW,3.5,-,N/A,,Clear,340,2013-02-05 02:15:00
8:35 PM,12.6,8.8,85,29.97,10.0,North,4.6,-,N/A,,Clear,360,2013-02-05 02:35:00
8:55 PM,12.2,7.9,83,29.97,10.0,North,4.6,-,N/A,,Clear,350,2013-02-05 02:55:00
9:15 PM,11.7,7.5,83,29.97,10.0,North,4.6,-,N/A,,Clear,350,2013-02-05 03:15:00
9:35 PM,11.5,7.0,82,29.96,10.0,North,4.6,-,N/A,,Scattered Clouds,350,2013-02-05 03:35:00
9:55 PM,10.4,6.4,84,29.97,10.0,North,4.6,-,N/A,,Scattered Clouds,360,2013-02-05 03:55:00
10:15 PM,9.5,5.4,83,29.97,10.0,North,6.9,-,N/A,,Scattered Clouds,360,2013-02-05 04:15:00
10:35 PM,8.6,5.0,85,29.98,10.0,North,4.6,-,N/A,,Clear,350,2013-02-05 04:35:00
10:55 PM,8.2,4.5,85,29.97,10.0,Calm,Calm,-,N/A,,Clear,0,2013-02-05 04:55:00
11:15 PM,7.5,4.5,87,29.97,10.0,Calm,Calm,-,N/A,,Clear,0,2013-02-05 05:15:00
11:35 PM,5.7,3.0,89,29.96,10.0,Calm,Calm,-,N/A,,Clear,0,2013-02-05 05:35:00
11:55 PM,5.7,3.6,91,29.95,10.0,South,4.6,-,N/A,,Clear,170,2013-02-05 05:55:00